createdAt,value
2022-09-27T00:01:25.135Z,11.34
2022-09-27T00:03:56.509Z,11.30
2022-09-27T00:06:28.994Z,11.29
2022-09-27T00:08:59.431Z,11.29
2022-09-27T00:11:33.294Z,11.27
2022-09-27T00:14:02.690Z,11.31
2022-09-27T00:16:35.429Z,11.30
2022-09-27T00:19:07.784Z,11.29
2022-09-27T00:21:37.025Z,11.29
2022-09-27T00:24:06.600Z,11.31
2022-09-27T00:26:37.017Z,11.31
2022-09-27T00:29:05.707Z,11.30
2022-09-27T00:31:34.715Z,11.29
2022-09-27T00:34:05.245Z,11.28
2022-09-27T00:36:35.904Z,11.30
2022-09-27T00:39:05.386Z,11.28
2022-09-27T00:41:37.506Z,11.28
2022-09-27T00:44:45.890Z,11.27
2022-09-27T00:47:25.151Z,11.26
2022-09-27T00:49:59.628Z,11.23
2022-09-27T00:52:35.932Z,11.17
2022-09-27T00:55:11.800Z,11.18
2022-09-27T00:57:46.381Z,11.15
2022-09-27T01:00:16.633Z,11.14
2022-09-27T01:02:51.901Z,11.16
2022-09-27T01:05:26.961Z,11.13
2022-09-27T01:07:56.859Z,11.15
2022-09-27T01:10:29.830Z,11.11
2022-09-27T01:13:13.373Z,11.05
2022-09-27T01:15:58.494Z,11.05
2022-09-27T01:18:40.383Z,11.08
2022-09-27T01:21:59.794Z,11.09
2022-09-27T01:25:04.633Z,11.11
2022-09-27T01:28:12.706Z,11.05
2022-09-27T01:30:51.724Z,11.02
2022-09-27T01:33:46.691Z,10.99
2022-09-27T01:36:30.814Z,11.02
2022-09-27T01:39:15.462Z,10.98
2022-09-27T01:41:57.719Z,10.93
2022-09-27T01:44:35.316Z,10.91
2022-09-27T01:47:13.867Z,10.93
2022-09-27T01:49:53.976Z,10.94
2022-09-27T01:52:32.397Z,10.92
2022-09-27T01:55:07.661Z,10.97
2022-09-27T01:57:42.497Z,10.95
2022-09-27T02:00:14.621Z,10.92
2022-09-27T02:02:51.960Z,10.88
2022-09-27T02:05:29.408Z,10.93
2022-09-27T02:08:04.598Z,10.93
2022-09-27T02:10:43.061Z,10.83
2022-09-27T02:13:23.195Z,10.84
2022-09-27T02:15:59.587Z,10.85
2022-09-27T02:18:39.444Z,10.86
2022-09-27T02:21:16.813Z,10.86
2022-09-27T02:23:52.766Z,10.86
2022-09-27T02:26:28.807Z,10.86
2022-09-27T02:29:06.850Z,10.85
2022-09-27T02:31:36.003Z,10.82
2022-09-27T02:34:13.104Z,10.81
2022-09-27T02:36:43.505Z,10.80
2022-09-27T02:39:12.859Z,10.78
2022-09-27T02:41:41.903Z,10.78
2022-09-27T02:44:15.515Z,10.80
2022-09-27T02:47:23.167Z,10.79
2022-09-27T02:50:16.619Z,10.80
2022-09-27T02:53:01.443Z,10.82
2022-09-27T02:55:45.840Z,10.73
2022-09-27T02:58:34.896Z,10.69
2022-09-27T03:01:13.437Z,10.67
2022-09-27T03:03:53.500Z,10.71
2022-09-27T03:06:25.705Z,10.74
2022-09-27T03:08:55.358Z,10.62
2022-09-27T03:11:25.212Z,10.64
2022-09-27T03:14:08.453Z,10.66
2022-09-27T03:16:38.299Z,10.67
2022-09-27T03:19:07.528Z,10.65
2022-09-27T03:21:37.768Z,10.66
2022-09-27T03:24:07.789Z,10.69
2022-09-27T03:26:36.954Z,10.68
2022-09-27T03:29:05.556Z,10.64
2022-09-27T03:31:34.190Z,10.60
2022-09-27T03:34:02.794Z,10.60
2022-09-27T03:36:32.840Z,10.62
2022-09-27T03:39:03.363Z,10.60
2022-09-27T03:41:32.286Z,10.54
2022-09-27T03:44:00.863Z,10.55
2022-09-27T03:46:32.733Z,10.52
2022-09-27T03:49:07.428Z,10.53
2022-09-27T03:51:36.063Z,10.54
2022-09-27T03:54:08.278Z,10.50
2022-09-27T03:56:37.294Z,10.54
2022-09-27T03:59:06.041Z,10.58
2022-09-27T04:01:36.200Z,10.59
2022-09-27T04:04:10.917Z,10.59
2022-09-27T04:06:40.461Z,10.57
2022-09-27T04:09:11.421Z,10.52
2022-09-27T04:11:40.229Z,10.49
2022-09-27T04:14:08.963Z,10.49
2022-09-27T04:16:37.594Z,10.44
2022-09-27T04:19:06.811Z,10.44
2022-09-27T04:21:35.886Z,10.46
2022-09-27T04:24:05.757Z,10.49
2022-09-27T04:26:36.025Z,10.47
2022-09-27T04:29:05.317Z,10.45
2022-09-27T04:31:34.594Z,10.39
2022-09-27T04:34:03.876Z,10.34
2022-09-27T04:36:32.612Z,10.33
2022-09-27T04:39:05.434Z,10.38
2022-09-27T04:41:36.559Z,10.36
2022-09-27T04:44:06.578Z,10.38
2022-09-27T04:46:35.337Z,10.31
2022-09-27T04:49:05.155Z,10.23
2022-09-27T04:51:34.165Z,10.24
2022-09-27T04:54:03.123Z,10.26
2022-09-27T04:56:31.825Z,10.22
2022-09-27T04:59:02.620Z,10.22
2022-09-27T05:01:33.925Z,10.20
2022-09-27T05:04:02.925Z,10.15
2022-09-27T05:06:32.331Z,10.14
2022-09-27T05:09:02.032Z,10.15
2022-09-27T05:11:31.372Z,10.15
2022-09-27T05:14:02.659Z,10.10
2022-09-27T05:16:34.003Z,10.15
2022-09-27T05:19:03.789Z,10.13
2022-09-27T05:21:33.387Z,10.10
2022-09-27T05:24:02.354Z,10.08
2022-09-27T05:26:31.744Z,10.10
2022-09-27T05:29:02.774Z,10.08
2022-09-27T05:31:32.125Z,10.08
2022-09-27T05:34:00.777Z,10.10
2022-09-27T05:36:29.422Z,10.13
2022-09-27T05:38:59.182Z,10.10
2022-09-27T05:41:27.862Z,10.10
2022-09-27T05:43:56.955Z,10.13
2022-09-27T05:46:27.201Z,10.10
2022-09-27T05:48:56.603Z,10.08
2022-09-27T05:51:26.480Z,10.09
2022-09-27T05:53:55.399Z,10.07
2022-09-27T05:56:24.912Z,10.06
2022-09-27T05:58:53.688Z,10.06
2022-09-27T06:01:22.494Z,10.08
2022-09-27T06:03:53.641Z,10.09
2022-09-27T06:06:23.667Z,10.07
2022-09-27T06:08:52.430Z,10.09
2022-09-27T06:11:21.193Z,10.08
2022-09-27T06:13:49.817Z,10.11
2022-09-27T06:16:18.804Z,10.13
2022-09-27T06:18:47.714Z,10.15
2022-09-27T06:21:17.673Z,10.15
2022-09-27T06:23:47.984Z,10.14
2022-09-27T06:26:21.028Z,10.15
2022-09-27T06:28:50.415Z,10.17
2022-09-27T06:31:19.441Z,10.17
2022-09-27T06:33:48.318Z,10.20
2022-09-27T06:36:19.132Z,10.23
2022-09-27T06:38:48.316Z,10.24
2022-09-27T06:41:17.416Z,10.27
2022-09-27T06:43:46.109Z,10.22
2022-09-27T06:46:15.080Z,10.24
2022-09-27T06:48:43.793Z,10.27
2022-09-27T06:51:12.912Z,10.27
2022-09-27T06:53:42.962Z,10.24
2022-09-27T06:56:12.350Z,10.28
2022-09-27T06:58:58.927Z,10.27
2022-09-27T07:01:30.492Z,10.29
2022-09-27T07:03:59.454Z,10.31
2022-09-27T07:06:28.185Z,10.29
2022-09-27T07:08:58.672Z,10.24
2022-09-27T07:11:27.307Z,10.28
2022-09-27T07:13:56.682Z,10.27
2022-09-27T07:16:26.052Z,10.30
2022-09-27T07:18:54.668Z,10.29
2022-09-27T07:21:23.322Z,10.29
2022-09-27T07:23:51.922Z,10.31
2022-09-27T07:26:22.838Z,10.36
2022-09-27T07:28:53.350Z,10.34
2022-09-27T07:31:22.660Z,10.37
2022-09-27T07:33:52.806Z,10.43
2022-09-27T07:36:22.561Z,10.43
2022-09-27T07:38:54.333Z,10.47
2022-09-27T07:41:24.409Z,10.46
2022-09-27T07:43:54.125Z,10.40
2022-09-27T07:46:23.411Z,10.42
2022-09-27T07:48:53.428Z,10.48
2022-09-27T07:51:22.899Z,10.51
2022-09-27T07:53:51.637Z,10.49
2022-09-27T07:56:20.271Z,10.45
2022-09-27T07:58:50.442Z,10.47
2022-09-27T08:01:19.196Z,10.45
2022-09-27T08:03:47.955Z,10.44
2022-09-27T08:06:18.799Z,10.50
2022-09-27T08:08:47.908Z,10.49
2022-09-27T08:11:19.345Z,10.54
2022-09-27T08:13:52.711Z,10.58
2022-09-27T08:16:22.339Z,10.57
2022-09-27T08:18:50.944Z,10.62
2022-09-27T08:21:19.603Z,10.63
2022-09-27T08:23:49.089Z,10.66
2022-09-27T08:26:18.224Z,10.65
2022-09-27T08:28:51.033Z,10.72
2022-09-27T08:31:19.829Z,10.72
2022-09-27T08:33:52.615Z,10.75
2022-09-27T08:36:21.555Z,10.78
2022-09-27T08:38:51.200Z,10.80
2022-09-27T08:41:36.331Z,10.85
2022-09-27T08:44:18.713Z,10.89
2022-09-27T08:47:02.547Z,10.92
2022-09-27T08:49:40.294Z,10.96
2022-09-27T08:52:19.755Z,11.03
2022-09-27T08:54:50.317Z,11.10
2022-09-27T08:57:19.172Z,11.09
2022-09-27T09:00:01.208Z,11.14
2022-09-27T09:02:30.046Z,11.11
2022-09-27T09:05:09.547Z,11.16
2022-09-27T09:08:02.843Z,11.20
2022-09-27T09:11:07.674Z,11.23
2022-09-27T09:13:59.179Z,11.23
2022-09-27T09:16:46.197Z,11.20
2022-09-27T09:19:41.717Z,11.28
2022-09-27T09:22:30.879Z,11.28
2022-09-27T09:25:29.821Z,11.26
2022-09-27T09:28:21.875Z,11.31
2022-09-27T09:31:06.817Z,11.30
2022-09-27T09:33:45.281Z,11.35
2022-09-27T09:36:28.055Z,11.36
2022-09-27T09:39:03.786Z,11.39
2022-09-27T09:41:40.472Z,11.44
2022-09-27T09:44:23.268Z,11.44
2022-09-27T09:46:58.052Z,11.42
2022-09-27T09:49:35.313Z,11.54
2022-09-27T09:52:13.966Z,11.56
2022-09-27T09:54:48.745Z,11.62
2022-09-27T09:57:22.949Z,11.58
2022-09-27T10:00:00.344Z,11.65
2022-09-27T10:02:35.033Z,11.70
2022-09-27T10:05:08.262Z,11.71
2022-09-27T10:07:41.621Z,11.75
2022-09-27T10:10:18.260Z,11.64
2022-09-27T10:12:47.987Z,11.61
2022-09-27T10:15:20.938Z,11.57
2022-09-27T10:17:54.691Z,11.57
2022-09-27T10:20:34.781Z,11.64
2022-09-27T10:23:13.630Z,11.70
2022-09-27T10:25:54.996Z,11.69
2022-09-27T10:28:38.429Z,11.73
2022-09-27T10:31:10.659Z,11.79
2022-09-27T10:33:55.010Z,11.87
2022-09-27T10:36:29.908Z,11.92
2022-09-27T10:39:01.661Z,11.95
2022-09-27T10:41:35.651Z,11.91
2022-09-27T10:44:25.686Z,11.90
2022-09-27T10:46:57.971Z,11.91
2022-09-27T10:49:32.397Z,11.91
2022-09-27T10:52:06.307Z,11.97
2022-09-27T10:54:38.473Z,12.00
2022-09-27T10:57:19.868Z,12.02
2022-09-27T10:59:56.135Z,11.88
2022-09-27T11:02:30.708Z,11.80
2022-09-27T11:05:15.077Z,11.83
2022-09-27T11:07:54.267Z,11.72
2022-09-27T11:10:29.879Z,11.63
2022-09-27T11:13:15.120Z,11.50
2022-09-27T11:16:20.919Z,11.31
2022-09-27T11:19:08.375Z,11.15
2022-09-27T11:21:53.940Z,11.09
2022-09-27T11:24:48.386Z,11.03
2022-09-27T11:27:38.455Z,11.11
2022-09-27T11:30:15.559Z,11.08
2022-09-27T11:33:20.286Z,11.03
2022-09-27T11:36:06.929Z,11.12
2022-09-27T11:38:54.836Z,11.05
2022-09-27T11:41:42.294Z,11.00
2022-09-27T11:44:44.290Z,11.01
2022-09-27T11:47:27.910Z,11.01
2022-09-27T11:50:44.863Z,10.99
2022-09-27T11:53:36.767Z,11.05
2022-09-27T11:56:19.391Z,11.04
2022-09-27T11:59:16.003Z,11.15
2022-09-27T12:01:55.175Z,11.27
2022-09-27T12:04:51.246Z,11.37
2022-09-27T12:07:32.069Z,11.32
2022-09-27T12:10:14.239Z,11.41
2022-09-27T12:12:47.731Z,11.54
2022-09-27T12:15:21.870Z,11.66
2022-09-27T12:17:57.241Z,11.60
2022-09-27T12:20:31.703Z,11.72
2022-09-27T12:23:05.534Z,11.80
2022-09-27T12:25:40.725Z,11.86
2022-09-27T12:28:24.609Z,11.89
2022-09-27T12:31:27.913Z,11.98
2022-09-27T12:34:17.538Z,12.05
2022-09-27T12:36:58.023Z,12.04
2022-09-27T12:39:35.755Z,12.02
2022-09-27T12:42:18.443Z,12.07
2022-09-27T12:44:50.845Z,12.07
2022-09-27T12:47:55.196Z,12.19
2022-09-27T12:50:37.767Z,12.16
2022-09-27T12:53:15.838Z,12.17
2022-09-27T12:56:25.778Z,12.35
2022-09-27T12:59:42.586Z,12.50
2022-09-27T13:03:14.814Z,12.55
2022-09-27T13:06:34.424Z,12.60
2022-09-27T13:09:47.475Z,12.60
2022-09-27T13:12:20.744Z,12.48
2022-09-27T13:15:01.442Z,12.48
2022-09-27T13:17:57.464Z,12.38
2022-09-27T13:20:52.971Z,12.34
2022-09-27T13:24:00.768Z,12.23
2022-09-27T13:26:52.199Z,11.58
2022-09-27T13:29:34.375Z,11.62
2022-09-27T13:32:19.378Z,11.57
2022-09-27T13:34:53.712Z,11.55
2022-09-27T13:37:48.584Z,11.38
2022-09-27T13:40:32.897Z,11.46
2022-09-27T13:43:47.751Z,11.54
2022-09-27T13:46:25.462Z,11.61
2022-09-27T13:49:01.803Z,11.76
2022-09-27T13:51:43.514Z,11.58
2022-09-27T13:54:51.980Z,11.90
2022-09-27T13:57:56.635Z,12.05
2022-09-27T14:00:28.606Z,12.35
2022-09-27T14:03:13.373Z,12.53
2022-09-27T14:05:50.242Z,12.66
2022-09-27T14:08:30.672Z,12.42
2022-09-27T14:11:01.848Z,12.44
2022-09-27T14:13:33.589Z,12.29
2022-09-27T14:16:06.997Z,12.41
2022-09-27T14:18:37.774Z,12.39
2022-09-27T14:21:22.511Z,12.39
2022-09-27T14:23:52.980Z,12.54
2022-09-27T14:26:26.407Z,12.59
2022-09-27T14:28:55.063Z,12.50
2022-09-27T14:31:26.573Z,12.56
2022-09-27T14:34:08.979Z,12.48
2022-09-27T14:37:12.201Z,12.43
2022-09-27T14:39:43.413Z,12.29
2022-09-27T14:42:22.769Z,12.40
2022-09-27T14:44:52.632Z,12.39
2022-09-27T14:47:24.906Z,12.44
2022-09-27T14:49:57.899Z,12.49
2022-09-27T14:52:31.486Z,12.54
2022-09-27T14:55:05.839Z,12.44
2022-09-27T14:57:37.227Z,12.29
2022-09-27T15:00:20.935Z,12.32
2022-09-27T15:02:55.573Z,12.47
2022-09-27T15:05:27.408Z,12.63
2022-09-27T15:07:58.303Z,12.68
2022-09-27T15:10:32.469Z,12.71
2022-09-27T15:13:04.784Z,12.70
2022-09-27T15:15:36.588Z,12.54
2022-09-27T15:18:33.050Z,12.51
2022-09-27T15:21:08.564Z,12.46
2022-09-27T15:23:40.446Z,12.44
2022-09-27T15:26:18.024Z,12.45
2022-09-27T15:28:50.233Z,12.42
2022-09-27T15:31:19.268Z,12.17
2022-09-27T15:33:57.166Z,11.96
2022-09-27T15:37:00.189Z,11.71
2022-09-27T15:39:33.546Z,11.73
2022-09-27T15:42:11.193Z,11.74
2022-09-27T15:44:47.365Z,11.71
2022-09-27T15:47:50.036Z,11.72
2022-09-27T15:50:39.039Z,11.69
2022-09-27T15:53:09.349Z,11.73
2022-09-27T15:55:43.813Z,11.78
2022-09-27T15:58:20.513Z,11.77
2022-09-27T16:00:58.804Z,11.82
2022-09-27T16:03:28.347Z,11.87
2022-09-27T16:05:58.609Z,11.88
2022-09-27T16:08:29.023Z,11.83
2022-09-27T16:11:00.576Z,11.83
2022-09-27T16:13:33.152Z,11.78
2022-09-27T16:16:03.575Z,11.71
2022-09-27T16:18:32.866Z,11.74
2022-09-27T16:21:03.549Z,11.71
2022-09-27T16:23:32.178Z,11.66
2022-09-27T16:26:01.168Z,11.65
2022-09-27T16:28:31.065Z,11.63
2022-09-27T16:31:05.414Z,11.56
2022-09-27T16:33:35.834Z,11.44
2022-09-27T16:36:15.157Z,11.42
2022-09-27T16:38:44.401Z,11.41
2022-09-27T16:41:12.921Z,11.28
2022-09-27T16:43:42.912Z,11.17
2022-09-27T16:46:13.221Z,11.11
2022-09-27T16:48:42.445Z,11.11
2022-09-27T16:51:34.150Z,11.03
2022-09-27T16:54:03.059Z,10.95
2022-09-27T16:56:33.081Z,10.86
2022-09-27T16:59:04.984Z,10.87
2022-09-27T17:01:34.112Z,10.80
2022-09-27T17:04:03.718Z,10.78
2022-09-27T17:06:33.621Z,10.77
2022-09-27T17:09:05.837Z,10.68
2022-09-27T17:11:35.110Z,10.65
2022-09-27T17:14:04.991Z,10.53
2022-09-27T17:17:20.015Z,10.43
2022-09-27T17:19:48.646Z,10.33
2022-09-27T17:22:17.132Z,10.32
2022-09-27T17:24:45.624Z,10.27
2022-09-27T17:27:14.029Z,10.22
2022-09-27T17:29:43.973Z,10.24
2022-09-27T17:32:14.820Z,10.24
2022-09-27T17:34:45.030Z,10.14
2022-09-27T17:37:13.534Z,10.06
2022-09-27T17:39:42.086Z,10.01
2022-09-27T17:42:11.778Z,9.99
2022-09-27T17:44:40.824Z,10.01
2022-09-27T17:47:28.438Z,9.94
2022-09-27T17:50:14.728Z,9.89
2022-09-27T17:52:43.520Z,9.84
2022-09-27T17:55:12.154Z,9.80
2022-09-27T17:57:40.650Z,9.77
2022-09-27T18:00:11.228Z,9.74
2022-09-27T18:02:42.876Z,9.73
2022-09-27T18:05:11.694Z,9.77
2022-09-27T18:07:40.824Z,9.80
2022-09-27T18:10:09.686Z,9.79
2022-09-27T18:12:39.241Z,9.77
2022-09-27T18:15:09.343Z,9.76
2022-09-27T18:17:38.146Z,9.77
2022-09-27T18:20:09.466Z,9.70
2022-09-27T18:22:38.978Z,9.64
2022-09-27T18:25:08.747Z,9.60
2022-09-27T18:27:38.639Z,9.65
2022-09-27T18:30:09.494Z,9.66
2022-09-27T18:32:38.103Z,9.56
2022-09-27T18:35:09.063Z,9.55
2022-09-27T18:37:37.802Z,9.52
2022-09-27T18:40:07.474Z,9.44
2022-09-27T18:42:36.649Z,9.35
2022-09-27T18:45:06.199Z,9.38
2022-09-27T18:47:34.976Z,9.40
2022-09-27T18:50:03.880Z,9.38
2022-09-27T18:52:33.810Z,9.32
2022-09-27T18:55:03.059Z,9.30
2022-09-27T18:57:33.072Z,9.26
2022-09-27T19:00:02.787Z,9.26
2022-09-27T19:02:32.627Z,9.28
2022-09-27T19:05:01.364Z,9.22
2022-09-27T19:07:33.082Z,9.16
2022-09-27T19:10:05.138Z,9.12
2022-09-27T19:12:33.900Z,9.04
2022-09-27T19:15:02.541Z,9.01
2022-09-27T19:17:32.075Z,8.93
2022-09-27T19:20:00.690Z,8.93
2022-09-27T19:22:31.373Z,8.93
2022-09-27T19:25:00.056Z,8.86
2022-09-27T19:27:32.392Z,8.89
2022-09-27T19:30:01.042Z,8.91
2022-09-27T19:32:29.567Z,8.89
2022-09-27T19:34:58.125Z,8.82
2022-09-27T19:37:26.594Z,8.83
2022-09-27T19:39:55.628Z,8.81
2022-09-27T19:42:24.231Z,8.85
2022-09-27T19:44:54.433Z,8.84
2022-09-27T19:47:23.154Z,8.86
2022-09-27T19:49:51.669Z,8.81
2022-09-27T19:52:20.592Z,8.82
2022-09-27T19:54:49.266Z,8.83
2022-09-27T19:57:18.149Z,8.79
2022-09-27T19:59:46.698Z,8.81
2022-09-27T20:02:17.707Z,8.84
2022-09-27T20:04:46.348Z,8.82
2022-09-27T20:07:14.855Z,8.73
2022-09-27T20:09:43.468Z,8.75
2022-09-27T20:12:12.556Z,8.75
2022-09-27T20:14:43.956Z,8.75
2022-09-27T20:17:13.591Z,8.70
2022-09-27T20:19:43.499Z,8.66
2022-09-27T20:22:11.991Z,8.69
2022-09-27T20:24:40.660Z,8.72
2022-09-27T20:27:09.198Z,8.71
2022-09-27T20:29:37.714Z,8.68
2022-09-27T20:32:26.597Z,8.68
2022-09-27T20:34:57.162Z,8.67
2022-09-27T20:37:26.072Z,8.66
2022-09-27T20:39:54.956Z,8.72
2022-09-27T20:42:23.485Z,8.74
2022-09-27T20:44:54.306Z,8.76
2022-09-27T20:47:23.446Z,8.75
2022-09-27T20:49:51.955Z,8.78
2022-09-27T20:52:22.262Z,8.80
2022-09-27T20:54:52.074Z,8.83
2022-09-27T20:57:46.260Z,8.87
2022-09-27T21:00:15.145Z,8.91
2022-09-27T21:02:43.671Z,8.92
2022-09-27T21:05:13.078Z,8.95
2022-09-27T21:07:43.023Z,8.96
2022-09-27T21:10:11.899Z,8.96
2022-09-27T21:12:40.481Z,9.00
2022-09-27T21:15:10.464Z,9.02
2022-09-27T21:17:39.066Z,9.05
2022-09-27T21:20:08.390Z,9.08
2022-09-27T21:22:37.790Z,9.13
2022-09-27T21:25:08.856Z,9.14
2022-09-27T21:27:37.334Z,9.18
2022-09-27T21:30:07.198Z,9.21
2022-09-27T21:32:36.603Z,9.21
2022-09-27T21:35:05.925Z,9.26
2022-09-27T21:37:35.178Z,9.29
2022-09-27T21:40:05.333Z,9.32
2022-09-27T21:42:35.749Z,9.35
2022-09-27T21:45:04.422Z,9.36
2022-09-27T21:47:34.498Z,9.39
2022-09-27T21:50:02.971Z,9.40
2022-09-27T21:52:31.592Z,9.43
2022-09-27T21:55:00.026Z,9.46
2022-09-27T21:57:31.898Z,9.49
2022-09-27T22:00:02.077Z,9.54
2022-09-27T22:02:31.166Z,9.56
2022-09-27T22:04:59.697Z,9.59
2022-09-27T22:07:28.207Z,9.61
2022-09-27T22:09:56.903Z,9.64
2022-09-27T22:12:26.706Z,9.66
2022-09-27T22:14:55.177Z,9.68
2022-09-27T22:17:25.894Z,9.71
2022-09-27T22:19:54.390Z,9.74
2022-09-27T22:22:22.955Z,9.74
2022-09-27T22:24:51.476Z,9.77
2022-09-27T22:27:19.916Z,9.78
2022-09-27T22:29:48.360Z,9.79
2022-09-27T22:32:16.790Z,9.81
2022-09-27T22:34:46.586Z,9.84
2022-09-27T22:37:15.560Z,9.86
2022-09-27T22:39:44.772Z,9.89
2022-09-27T22:42:13.352Z,9.88
2022-09-27T22:44:41.855Z,9.92
2022-09-27T22:47:10.514Z,9.93
2022-09-27T22:49:39.095Z,9.95
2022-09-27T22:52:09.282Z,9.96
2022-09-27T22:54:38.021Z,9.98
2022-09-27T22:57:06.481Z,9.98
2022-09-27T22:59:34.953Z,10.00
2022-09-27T23:02:03.429Z,10.01
2022-09-27T23:04:31.994Z,9.98
2022-09-27T23:07:00.445Z,10.00
2022-09-27T23:09:30.871Z,10.02
2022-09-27T23:11:59.571Z,10.01
2022-09-27T23:14:29.607Z,10.01
2022-09-27T23:16:58.756Z,9.97
2022-09-27T23:19:27.517Z,9.97
2022-09-27T23:21:56.601Z,9.98
2022-09-27T23:24:25.755Z,10.00
2022-09-27T23:27:09.894Z,10.00
2022-09-27T23:29:38.775Z,9.98
2022-09-27T23:32:08.656Z,10.00
2022-09-27T23:34:37.109Z,10.00
2022-09-27T23:37:06.057Z,10.00
2022-09-27T23:39:34.681Z,9.96
2022-09-27T23:42:04.690Z,9.97
2022-09-27T23:44:33.355Z,9.98
2022-09-27T23:47:02.990Z,9.98
2022-09-27T23:49:32.253Z,9.99
2022-09-27T23:52:01.555Z,9.98
2022-09-27T23:54:30.703Z,9.99
2022-09-27T23:57:00.163Z,10.01
2022-09-27T23:59:30.373Z,10.01
